createdAt,value
2019-03-21T00:01:54.000Z,2.42
2019-03-21T00:04:29.847Z,2.46
2019-03-21T00:07:05.701Z,2.48
2019-03-21T00:09:44.632Z,2.45
2019-03-21T00:12:20.518Z,2.47
2019-03-21T00:14:59.404Z,2.44
2019-03-21T00:17:44.283Z,2.44
2019-03-21T00:20:20.444Z,2.47
2019-03-21T00:22:56.804Z,2.47
2019-03-21T00:25:32.651Z,2.46
2019-03-21T00:28:08.624Z,2.47
2019-03-21T00:30:45.601Z,2.48
2019-03-21T00:33:21.450Z,2.49
2019-03-21T00:35:57.294Z,2.49
2019-03-21T00:38:33.159Z,2.53
2019-03-21T00:41:09.311Z,2.57
2019-03-21T00:43:45.471Z,2.62
2019-03-21T00:46:21.334Z,2.65
2019-03-21T00:48:57.193Z,2.65
2019-03-21T00:51:33.138Z,2.68
2019-03-21T00:54:10.425Z,2.70
2019-03-21T00:56:46.747Z,2.71
2019-03-21T00:59:22.551Z,2.70
2019-03-21T01:01:58.768Z,2.70
2019-03-21T01:04:34.561Z,2.69
2019-03-21T01:07:10.436Z,2.66
2019-03-21T01:09:46.274Z,2.67
2019-03-21T01:12:22.022Z,2.65
2019-03-21T01:14:58.379Z,2.66
2019-03-21T01:17:34.603Z,2.66
2019-03-21T01:20:17.574Z,2.69
2019-03-21T01:22:53.629Z,2.69
2019-03-21T01:25:47.814Z,2.75
2019-03-21T01:28:23.660Z,2.75
2019-03-21T01:30:59.638Z,2.76
2019-03-21T01:33:35.479Z,2.78
2019-03-21T01:36:11.338Z,2.80
2019-03-21T01:38:47.189Z,2.77
2019-03-21T01:41:22.964Z,2.79
2019-03-21T01:43:58.901Z,2.78
2019-03-21T01:46:34.751Z,2.81
2019-03-21T01:49:10.610Z,2.83
2019-03-21T01:51:47.522Z,2.85
2019-03-21T01:54:23.436Z,2.83
2019-03-21T01:56:59.390Z,2.81
2019-03-21T01:59:35.239Z,2.78
2019-03-21T02:02:11.195Z,2.79
2019-03-21T02:04:47.064Z,2.79
2019-03-21T02:07:22.923Z,2.75
2019-03-21T02:09:58.859Z,2.73
2019-03-21T02:12:35.069Z,2.74
2019-03-21T02:15:15.292Z,2.75
2019-03-21T02:17:51.553Z,2.77
2019-03-21T02:20:27.767Z,2.77
2019-03-21T02:23:03.572Z,2.80
2019-03-21T02:25:44.851Z,2.83
2019-03-21T02:28:20.708Z,2.80
2019-03-21T02:30:57.063Z,2.79
2019-03-21T02:33:39.268Z,2.77
2019-03-21T02:36:15.221Z,2.77
2019-03-21T02:38:51.181Z,2.78
2019-03-21T02:41:27.032Z,2.82
2019-03-21T02:44:03.000Z,2.79
2019-03-21T02:46:39.258Z,2.69
2019-03-21T02:49:16.132Z,2.72
2019-03-21T02:51:51.985Z,2.69
2019-03-21T02:54:28.047Z,2.69
2019-03-21T02:57:03.905Z,2.71
2019-03-21T02:59:39.762Z,2.69
2019-03-21T03:02:15.611Z,2.69
2019-03-21T03:04:51.617Z,2.70
2019-03-21T03:07:27.416Z,2.73
2019-03-21T03:10:03.386Z,2.77
2019-03-21T03:12:39.428Z,2.80
2019-03-21T03:15:23.262Z,2.83
2019-03-21T03:17:56.567Z,2.87
2019-03-21T03:20:32.951Z,2.86
2019-03-21T03:23:08.749Z,2.87
2019-03-21T03:25:45.252Z,2.92
2019-03-21T03:28:23.770Z,2.91
2019-03-21T03:31:00.017Z,2.97
2019-03-21T03:33:36.207Z,3.02
2019-03-21T03:36:12.909Z,3.11
2019-03-21T03:38:49.325Z,3.17
2019-03-21T03:41:25.373Z,3.21
2019-03-21T03:44:01.161Z,3.31
2019-03-21T03:46:36.998Z,3.36
2019-03-21T03:49:12.761Z,3.37
2019-03-21T03:51:48.640Z,3.38
2019-03-21T03:54:24.768Z,3.44
2019-03-21T03:57:01.657Z,3.48
2019-03-21T03:59:37.702Z,3.51
2019-03-21T04:02:13.826Z,3.54
2019-03-21T04:04:49.932Z,3.60
2019-03-21T04:07:25.990Z,3.67
2019-03-21T04:10:01.837Z,3.72
2019-03-21T04:12:38.086Z,3.75
2019-03-21T04:15:15.552Z,3.77
2019-03-21T04:17:51.356Z,3.76
2019-03-21T04:20:42.365Z,3.74
2019-03-21T04:23:20.662Z,3.74
2019-03-21T04:26:11.692Z,3.72
2019-03-21T04:28:47.522Z,3.75
2019-03-21T04:31:23.387Z,3.80
2019-03-21T04:34:02.716Z,3.82
2019-03-21T04:36:38.570Z,3.94
2019-03-21T04:39:14.635Z,4.00
2019-03-21T04:41:50.589Z,4.01
2019-03-21T04:44:26.446Z,4.08
2019-03-21T04:47:02.306Z,4.08
2019-03-21T04:49:38.249Z,4.14
2019-03-21T04:52:13.998Z,4.13
2019-03-21T04:54:49.917Z,4.19
2019-03-21T04:57:25.820Z,4.18
2019-03-21T05:00:03.673Z,4.22
2019-03-21T05:02:41.474Z,4.28
2019-03-21T05:05:18.285Z,4.32
2019-03-21T05:07:54.291Z,4.36
2019-03-21T05:10:31.232Z,4.40
2019-03-21T05:13:07.085Z,4.48
2019-03-21T05:15:47.188Z,4.49
2019-03-21T05:18:41.214Z,4.50
2019-03-21T05:21:23.071Z,4.54
2019-03-21T05:23:59.077Z,4.55
2019-03-21T05:26:35.118Z,4.57
2019-03-21T05:29:11.091Z,4.62
2019-03-21T05:31:48.159Z,4.69
2019-03-21T05:34:24.019Z,4.68
2019-03-21T05:37:00.805Z,4.73
2019-03-21T05:39:36.657Z,4.78
2019-03-21T05:42:13.703Z,4.84
2019-03-21T05:44:49.596Z,4.84
2019-03-21T05:47:25.446Z,4.88
2019-03-21T05:50:01.959Z,4.91
2019-03-21T05:52:37.898Z,4.96
2019-03-21T05:55:14.028Z,4.94
2019-03-21T05:57:50.035Z,4.99
2019-03-21T06:00:28.804Z,5.03
2019-03-21T06:03:06.085Z,5.08
2019-03-21T06:05:45.326Z,5.17
2019-03-21T06:08:24.243Z,5.19
2019-03-21T06:11:00.120Z,5.23
2019-03-21T06:13:36.686Z,5.29
2019-03-21T06:16:13.554Z,5.38
2019-03-21T06:18:52.684Z,5.47
2019-03-21T06:21:49.735Z,5.55
2019-03-21T06:24:38.600Z,5.59
2019-03-21T06:27:28.892Z,5.64
2019-03-21T06:30:06.927Z,5.73
2019-03-21T06:32:42.759Z,5.79
2019-03-21T06:35:20.538Z,5.83
2019-03-21T06:37:57.536Z,5.82
2019-03-21T06:40:33.380Z,5.85
2019-03-21T06:43:09.597Z,5.91
2019-03-21T06:45:48.212Z,5.96
2019-03-21T06:48:23.760Z,5.96
2019-03-21T06:50:59.575Z,6.02
2019-03-21T06:53:35.822Z,6.06
2019-03-21T06:56:11.684Z,6.21
2019-03-21T06:58:47.523Z,6.32
2019-03-21T07:01:23.279Z,6.42
2019-03-21T07:04:07.033Z,6.46
2019-03-21T07:06:36.629Z,6.53
2019-03-21T07:09:12.584Z,6.63
2019-03-21T07:11:49.504Z,6.68
2019-03-21T07:14:26.848Z,6.68
2019-03-21T07:17:03.635Z,6.79
2019-03-21T07:19:40.481Z,6.90
2019-03-21T07:22:16.271Z,7.00
2019-03-21T07:24:52.025Z,7.03
2019-03-21T07:27:27.854Z,7.03
2019-03-21T07:30:05.099Z,7.08
2019-03-21T07:32:40.833Z,7.19
2019-03-21T07:35:16.615Z,7.28
2019-03-21T07:37:52.490Z,7.36
2019-03-21T07:40:28.305Z,7.43
2019-03-21T07:43:04.064Z,7.53
2019-03-21T07:45:39.838Z,7.61
2019-03-21T07:48:15.754Z,7.73
2019-03-21T07:50:52.156Z,7.78
2019-03-21T07:53:27.854Z,7.90
2019-03-21T07:56:03.810Z,8.02
2019-03-21T07:58:40.190Z,8.12
2019-03-21T08:01:16.135Z,8.18
2019-03-21T08:03:51.858Z,8.29
2019-03-21T08:06:27.746Z,8.36
2019-03-21T08:09:04.212Z,8.46
2019-03-21T08:11:40.072Z,8.52
2019-03-21T08:14:15.881Z,8.68
2019-03-21T08:16:51.758Z,8.80
2019-03-21T08:19:27.616Z,8.93
2019-03-21T08:22:03.501Z,9.10
2019-03-21T08:24:39.425Z,9.19
2019-03-21T08:27:15.246Z,9.24
2019-03-21T08:29:51.655Z,9.31
2019-03-21T08:32:27.491Z,9.39
2019-03-21T08:35:04.481Z,9.53
2019-03-21T08:37:40.342Z,9.56
2019-03-21T08:40:16.393Z,9.61
2019-03-21T08:42:52.551Z,9.68
2019-03-21T08:45:29.832Z,9.68
2019-03-21T08:48:05.792Z,9.79
2019-03-21T08:50:42.064Z,9.76
2019-03-21T08:53:18.284Z,9.85
2019-03-21T08:55:54.170Z,9.88
2019-03-21T08:58:30.289Z,9.85
2019-03-21T09:01:06.298Z,9.85
2019-03-21T09:03:42.710Z,9.83
2019-03-21T09:06:18.877Z,9.83
2019-03-21T09:08:54.679Z,9.85
2019-03-21T09:11:30.632Z,9.86
2019-03-21T09:14:06.476Z,9.88
2019-03-21T09:16:42.335Z,9.85
2019-03-21T09:19:18.280Z,9.92
2019-03-21T09:21:54.147Z,9.99
2019-03-21T09:24:30.002Z,10.08
2019-03-21T09:27:05.964Z,10.16
2019-03-21T09:29:52.822Z,10.24
2019-03-21T09:32:20.419Z,10.38
2019-03-21T09:34:56.701Z,10.63
2019-03-21T09:37:32.507Z,10.74
2019-03-21T09:40:10.960Z,10.86
2019-03-21T09:42:46.821Z,10.92
2019-03-21T09:45:22.831Z,10.85
2019-03-21T09:47:58.729Z,10.85
2019-03-21T09:50:34.580Z,10.90
2019-03-21T09:53:10.363Z,10.98
2019-03-21T09:55:46.188Z,11.04
2019-03-21T09:58:22.037Z,11.12
2019-03-21T10:00:57.905Z,11.24
2019-03-21T10:03:33.746Z,11.34
2019-03-21T10:06:09.613Z,11.41
2019-03-21T10:08:45.464Z,11.47
2019-03-21T10:11:21.319Z,11.52
2019-03-21T10:13:57.167Z,11.53
2019-03-21T10:16:33.022Z,11.55
2019-03-21T10:19:09.158Z,11.44
2019-03-21T10:21:44.930Z,11.38
2019-03-21T10:24:20.793Z,11.35
2019-03-21T10:26:56.636Z,11.25
2019-03-21T10:29:32.809Z,11.18
2019-03-21T10:32:14.128Z,11.18
2019-03-21T10:34:46.445Z,11.23
2019-03-21T10:37:22.318Z,11.28
2019-03-21T10:39:58.261Z,11.32
2019-03-21T10:42:34.115Z,11.39
2019-03-21T10:45:09.976Z,11.47
2019-03-21T10:47:45.817Z,11.46
2019-03-21T10:50:39.338Z,11.50
2019-03-21T10:53:15.243Z,11.56
2019-03-21T10:55:51.267Z,11.64
2019-03-21T10:58:27.165Z,11.66
2019-03-21T11:01:03.026Z,11.74
2019-03-21T11:03:39.178Z,11.81
2019-03-21T11:06:15.550Z,11.72
2019-03-21T11:08:51.393Z,11.83
2019-03-21T11:11:27.353Z,11.88
2019-03-21T11:14:03.205Z,11.86
2019-03-21T11:16:39.056Z,11.89
2019-03-21T11:19:15.018Z,12.01
2019-03-21T11:21:50.884Z,12.09
2019-03-21T11:24:26.734Z,12.01
2019-03-21T11:27:02.637Z,12.05
2019-03-21T11:29:38.572Z,12.06
2019-03-21T11:32:14.385Z,12.15
2019-03-21T11:34:50.308Z,12.27
2019-03-21T11:37:26.227Z,12.38
2019-03-21T11:40:02.071Z,12.37
2019-03-21T11:42:38.223Z,12.30
2019-03-21T11:45:15.122Z,12.33
2019-03-21T11:47:51.160Z,12.39
2019-03-21T11:50:27.018Z,12.44
2019-03-21T11:53:02.852Z,12.39
2019-03-21T11:55:38.712Z,12.43
2019-03-21T11:58:14.578Z,12.45
2019-03-21T12:00:50.431Z,12.47
2019-03-21T12:03:26.370Z,12.53
2019-03-21T12:06:02.230Z,12.59
2019-03-21T12:08:38.196Z,12.54
2019-03-21T12:11:14.047Z,12.58
2019-03-21T12:13:50.323Z,12.61
2019-03-21T12:16:26.170Z,12.67
2019-03-21T12:19:02.017Z,12.70
2019-03-21T12:21:37.862Z,12.71
2019-03-21T12:24:13.717Z,12.75
2019-03-21T12:26:49.580Z,12.73
2019-03-21T12:29:25.432Z,12.85
2019-03-21T12:32:01.294Z,12.89
2019-03-21T12:34:37.243Z,13.03
2019-03-21T12:37:13.395Z,12.98
2019-03-21T12:39:49.499Z,12.92
2019-03-21T12:42:25.416Z,12.91
2019-03-21T12:45:01.587Z,13.00
2019-03-21T12:47:37.634Z,13.03
2019-03-21T12:50:13.500Z,13.10
2019-03-21T12:52:49.344Z,13.03
2019-03-21T12:55:25.190Z,12.95
2019-03-21T12:58:01.160Z,13.03
2019-03-21T13:00:39.476Z,13.01
2019-03-21T13:03:15.334Z,12.85
2019-03-21T13:05:51.171Z,12.72
2019-03-21T13:08:33.769Z,12.63
2019-03-21T13:11:04.734Z,12.50
2019-03-21T13:13:41.703Z,12.58
2019-03-21T13:16:17.598Z,12.64
2019-03-21T13:18:53.523Z,12.69
2019-03-21T13:21:29.476Z,12.77
2019-03-21T13:24:05.551Z,12.78
2019-03-21T13:26:41.485Z,12.71
2019-03-21T13:29:17.455Z,12.63
2019-03-21T13:31:53.815Z,12.62
2019-03-21T13:34:29.662Z,12.56
2019-03-21T13:37:05.525Z,12.55
2019-03-21T13:39:41.385Z,12.58
2019-03-21T13:42:17.492Z,12.63
2019-03-21T13:44:53.410Z,12.67
2019-03-21T13:47:29.708Z,12.83
2019-03-21T13:50:09.612Z,12.90
2019-03-21T13:52:45.453Z,13.11
2019-03-21T13:55:21.672Z,13.51
2019-03-21T13:57:57.595Z,13.74
2019-03-21T14:00:33.537Z,13.69
2019-03-21T14:03:09.380Z,13.54
2019-03-21T14:05:45.380Z,13.32
2019-03-21T14:08:21.120Z,13.22
2019-03-21T14:10:56.922Z,12.94
2019-03-21T14:13:32.693Z,13.02
2019-03-21T14:16:08.546Z,13.07
2019-03-21T14:18:44.771Z,13.06
2019-03-21T14:21:20.518Z,13.02
2019-03-21T14:23:56.434Z,13.06
2019-03-21T14:26:32.278Z,13.00
2019-03-21T14:29:12.899Z,12.97
2019-03-21T14:31:45.757Z,12.91
2019-03-21T14:34:21.551Z,12.84
2019-03-21T14:36:57.392Z,12.95
2019-03-21T14:39:33.327Z,13.04
2019-03-21T14:42:09.136Z,13.11
2019-03-21T14:44:44.880Z,13.13
2019-03-21T14:47:20.625Z,13.28
2019-03-21T14:49:56.489Z,13.44
2019-03-21T14:52:32.409Z,13.58
2019-03-21T14:55:09.564Z,13.54
2019-03-21T14:57:45.654Z,13.61
2019-03-21T15:00:21.560Z,13.59
2019-03-21T15:02:57.410Z,13.37
2019-03-21T15:05:33.340Z,13.36
2019-03-21T15:08:09.184Z,13.26
2019-03-21T15:10:45.085Z,13.16
2019-03-21T15:13:20.951Z,13.17
2019-03-21T15:15:56.885Z,13.14
2019-03-21T15:18:32.734Z,13.09
2019-03-21T15:21:08.583Z,13.12
2019-03-21T15:23:44.550Z,13.09
2019-03-21T15:26:20.407Z,13.09
2019-03-21T15:28:56.460Z,13.03
2019-03-21T15:31:32.562Z,13.02
2019-03-21T15:34:08.904Z,12.99
2019-03-21T15:36:44.753Z,13.05
2019-03-21T15:39:20.892Z,13.01
2019-03-21T15:41:57.009Z,13.08
2019-03-21T15:44:33.142Z,13.10
2019-03-21T15:47:08.911Z,13.05
2019-03-21T15:49:44.706Z,13.06
2019-03-21T15:52:20.476Z,13.03
2019-03-21T15:54:56.361Z,12.97
2019-03-21T15:57:32.178Z,12.91
2019-03-21T16:00:10.509Z,12.78
2019-03-21T16:02:46.323Z,12.73
2019-03-21T16:05:22.095Z,12.69
2019-03-21T16:07:57.888Z,12.66
2019-03-21T16:10:33.750Z,12.64
2019-03-21T16:13:09.969Z,12.55
2019-03-21T16:15:45.757Z,12.48
2019-03-21T16:18:21.565Z,12.40
2019-03-21T16:20:57.554Z,12.39
2019-03-21T16:23:33.355Z,12.38
2019-03-21T16:26:09.123Z,12.32
2019-03-21T16:28:44.926Z,12.27
2019-03-21T16:31:20.789Z,12.18
2019-03-21T16:33:56.591Z,12.09
2019-03-21T16:36:32.483Z,12.03
2019-03-21T16:39:08.360Z,11.97
2019-03-21T16:41:44.156Z,11.87
2019-03-21T16:44:19.908Z,11.82
2019-03-21T16:46:55.702Z,11.74
2019-03-21T16:49:31.496Z,11.66
2019-03-21T16:52:07.370Z,11.60
2019-03-21T16:54:43.146Z,11.49
2019-03-21T16:57:18.918Z,11.41
2019-03-21T16:59:54.705Z,11.35
2019-03-21T17:02:30.519Z,11.25
2019-03-21T17:05:06.697Z,11.22
2019-03-21T17:07:42.519Z,11.17
2019-03-21T17:10:18.490Z,11.07
2019-03-21T17:12:54.397Z,11.00
2019-03-21T17:15:30.192Z,10.98
2019-03-21T17:18:06.588Z,10.96
2019-03-21T17:20:42.724Z,10.97
2019-03-21T17:23:18.566Z,10.98
2019-03-21T17:25:54.356Z,11.01
2019-03-21T17:28:30.424Z,10.99
2019-03-21T17:31:06.181Z,10.97
2019-03-21T17:33:42.035Z,10.94
2019-03-21T17:36:20.629Z,10.90
2019-03-21T17:38:55.396Z,10.85
2019-03-21T17:41:31.209Z,10.78
2019-03-21T17:44:07.111Z,10.73
2019-03-21T17:46:42.954Z,10.71
2019-03-21T17:49:18.924Z,10.67
2019-03-21T17:51:55.737Z,10.59
2019-03-21T17:54:40.995Z,10.59
2019-03-21T17:57:09.020Z,10.57
2019-03-21T17:59:44.884Z,10.52
2019-03-21T18:02:20.695Z,10.51
2019-03-21T18:04:56.507Z,10.45
2019-03-21T18:07:32.281Z,10.43
2019-03-21T18:10:16.876Z,10.41
2019-03-21T18:12:52.962Z,10.35
2019-03-21T18:15:28.848Z,10.31
2019-03-21T18:18:04.887Z,10.32
2019-03-21T18:20:40.642Z,10.33
2019-03-21T18:23:16.702Z,10.28
2019-03-21T18:25:52.641Z,10.25
2019-03-21T18:28:28.540Z,10.24
2019-03-21T18:31:04.348Z,10.22
2019-03-21T18:33:40.338Z,10.23
2019-03-21T18:36:16.152Z,10.19
2019-03-21T18:38:58.710Z,10.19
2019-03-21T18:41:30.241Z,10.19
2019-03-21T18:44:06.024Z,10.18
2019-03-21T18:46:41.806Z,10.15
2019-03-21T18:49:17.635Z,10.10
2019-03-21T18:51:53.461Z,10.06
2019-03-21T18:54:29.249Z,10.03
2019-03-21T18:57:05.051Z,10.00
2019-03-21T18:59:40.875Z,9.95
2019-03-21T19:02:16.924Z,9.93
2019-03-21T19:04:52.705Z,9.89
2019-03-21T19:07:29.539Z,9.85
2019-03-21T19:10:10.788Z,9.82
2019-03-21T19:12:47.159Z,9.79
2019-03-21T19:15:23.077Z,9.71
2019-03-21T19:17:59.156Z,9.64
2019-03-21T19:20:34.973Z,9.62
2019-03-21T19:23:10.752Z,9.58
2019-03-21T19:25:46.755Z,9.50
2019-03-21T19:28:22.527Z,9.45
2019-03-21T19:30:58.379Z,9.43
2019-03-21T19:33:34.167Z,9.38
2019-03-21T19:36:10.020Z,9.31
2019-03-21T19:38:45.879Z,9.22
2019-03-21T19:41:22.851Z,9.19
2019-03-21T19:43:58.701Z,9.14
2019-03-21T19:46:34.562Z,9.10
2019-03-21T19:49:10.518Z,9.02
2019-03-21T19:51:46.478Z,8.95
2019-03-21T19:54:22.320Z,8.87
2019-03-21T19:56:58.184Z,8.79
2019-03-21T19:59:34.150Z,8.69
2019-03-21T20:02:09.998Z,8.62
2019-03-21T20:04:48.245Z,8.55
2019-03-21T20:07:23.578Z,8.45
2019-03-21T20:09:59.491Z,8.43
2019-03-21T20:12:36.096Z,8.41
2019-03-21T20:15:16.707Z,8.38
2019-03-21T20:17:52.721Z,8.33
2019-03-21T20:20:30.983Z,8.33
2019-03-21T20:23:06.558Z,8.31
2019-03-21T20:25:43.442Z,8.30
2019-03-21T20:28:19.485Z,8.24
2019-03-21T20:30:55.356Z,8.18
2019-03-21T20:33:31.143Z,8.10
2019-03-21T20:36:07.057Z,8.05
2019-03-21T20:38:42.913Z,7.99
2019-03-21T20:41:18.761Z,7.90
2019-03-21T20:43:54.618Z,7.82
2019-03-21T20:46:30.576Z,7.77
2019-03-21T20:49:06.743Z,7.75
2019-03-21T20:51:43.200Z,7.74
2019-03-21T20:54:19.257Z,7.77
2019-03-21T20:56:55.837Z,7.80
2019-03-21T20:59:31.678Z,7.87
2019-03-21T21:02:07.738Z,7.93
2019-03-21T21:04:45.126Z,8.00
2019-03-21T21:07:20.990Z,8.07
2019-03-21T21:09:56.939Z,8.14
2019-03-21T21:12:32.801Z,8.22
2019-03-21T21:15:11.018Z,8.29
2019-03-21T21:17:46.869Z,8.33
2019-03-21T21:20:22.722Z,8.35
2019-03-21T21:22:58.553Z,8.36
2019-03-21T21:25:34.427Z,8.32
2019-03-21T21:28:10.272Z,8.30
2019-03-21T21:30:46.124Z,8.33
2019-03-21T21:33:22.000Z,8.31
2019-03-21T21:35:57.836Z,8.33
2019-03-21T21:38:33.803Z,8.34
2019-03-21T21:41:09.659Z,8.33
2019-03-21T21:43:45.505Z,8.31
2019-03-21T21:46:21.718Z,8.32
2019-03-21T21:48:57.732Z,8.30
2019-03-21T21:51:33.581Z,8.23
2019-03-21T21:54:10.101Z,8.23
2019-03-21T21:56:46.954Z,8.16
2019-03-21T21:59:23.037Z,8.15
2019-03-21T22:01:59.387Z,8.08
2019-03-21T22:04:35.300Z,8.02
2019-03-21T22:07:11.160Z,7.90
2019-03-21T22:09:48.013Z,7.86
2019-03-21T22:12:23.894Z,7.79
2019-03-21T22:14:59.748Z,7.75
2019-03-21T22:17:35.518Z,7.72
2019-03-21T22:20:16.760Z,7.67
2019-03-21T22:22:52.622Z,7.66
2019-03-21T22:25:28.494Z,7.62
2019-03-21T22:28:04.336Z,7.56
2019-03-21T22:30:40.188Z,7.52
2019-03-21T22:33:16.050Z,7.47
2019-03-21T22:35:51.898Z,7.42
2019-03-21T22:38:27.722Z,7.42
2019-03-21T22:41:03.613Z,7.37
2019-03-21T22:43:39.465Z,7.33
2019-03-21T22:46:15.323Z,7.26
2019-03-21T22:48:51.116Z,7.23
2019-03-21T22:51:28.833Z,7.20
2019-03-21T22:54:04.617Z,7.17
2019-03-21T22:56:41.469Z,7.13
2019-03-21T22:59:17.720Z,7.10
2019-03-21T23:01:53.506Z,7.04
2019-03-21T23:04:29.364Z,7.02
2019-03-21T23:07:05.541Z,6.93
2019-03-21T23:09:41.388Z,6.91
2019-03-21T23:12:17.229Z,6.85
2019-03-21T23:14:53.105Z,6.80
2019-03-21T23:17:28.953Z,6.77
2019-03-21T23:20:10.842Z,6.77
2019-03-21T23:22:47.336Z,6.72
2019-03-21T23:25:23.421Z,6.68
2019-03-21T23:27:59.327Z,6.70
2019-03-21T23:30:35.174Z,6.69
2019-03-21T23:33:11.127Z,6.67
2019-03-21T23:35:46.993Z,6.68
2019-03-21T23:38:22.848Z,6.69
2019-03-21T23:40:59.112Z,6.69
2019-03-21T23:43:36.077Z,6.69
2019-03-21T23:46:11.934Z,6.64
2019-03-21T23:48:47.784Z,6.64
2019-03-21T23:51:24.572Z,6.64
2019-03-21T23:54:00.421Z,6.64
2019-03-21T23:56:36.490Z,6.62
2019-03-21T23:59:12.341Z,6.61
